Time;durP1;ratioP1;P1;durP2;ratioP2;P2;SDS_P1;SDS_P2;PMS_P1;PMS_P2;Temp;Humidity;BMP_temperature;BMP_pressure;BME280_temperature;BME280_humidity;BME280_pressure;Samples;Min_cycle;Max_cycle;Signal;HPM_P1;HPM_P2
2022/10/10 00:01:27;;;;;;;0.22;0.22;;;;;;;17.79;100.00;99195.94;7396097;19;20022;-57
2022/10/10 00:03:54;;;;;;;0.35;0.30;;;;;;;17.87;100.00;99203.19;7389858;19;20459;-56
2022/10/10 00:06:21;;;;;;;2.55;0.45;;;;;;;17.76;100.00;99203.41;7396115;19;20092;-56
2022/10/10 00:08:48;;;;;;;0.52;0.40;;;;;;;17.68;100.00;99196.13;7393315;19;20011;-56
2022/10/10 00:11:17;;;;;;;1.75;0.43;;;;;;;17.67;100.00;99195.38;7396250;19;20037;-56
2022/10/10 00:13:43;;;;;;;3.38;0.82;;;;;;;17.65;100.00;99192.34;7393067;19;20023;-56
2022/10/10 00:16:10;;;;;;;0.30;0.13;;;;;;;17.73;100.00;99193.25;7392083;19;20019;-59
2022/10/10 00:18:39;;;;;;;0.20;0.20;;;;;;;17.77;100.00;99192.91;7396519;19;20393;-57
2022/10/10 00:21:05;;;;;;;0.25;0.25;;;;;;;17.71;100.00;99195.84;7395456;19;20014;-57
2022/10/10 00:23:32;;;;;;;0.28;0.28;;;;;;;17.90;100.00;99181.63;7390085;19;20018;-56
2022/10/10 00:25:58;;;;;;;0.40;0.40;;;;;;;17.62;100.00;99185.00;7396540;19;20015;-56
2022/10/10 00:28:25;;;;;;;0.63;0.63;;;;;;;17.95;100.00;99181.50;7396310;19;20018;-56
2022/10/10 00:30:52;;;;;;;0.30;0.30;;;;;;;17.79;100.00;99185.44;7395780;19;20006;-56
2022/10/10 00:33:19;;;;;;;1.10;0.40;;;;;;;17.73;100.00;99193.25;7391806;19;20671;-56
2022/10/10 00:35:45;;;;;;;0.73;0.50;;;;;;;17.53;100.00;99191.03;7391135;19;20011;-56
2022/10/10 00:38:12;;;;;;;5.57;0.82;;;;;;;17.90;100.00;99184.44;7395673;19;20457;-56
2022/10/10 00:40:49;;;;;;;0.95;0.40;;;;;;;17.97;100.00;99181.75;7395469;19;20018;-56
2022/10/10 00:43:16;;;;;;;0.70;0.45;;;;;;;18.07;100.00;99184.88;7390495;19;20561;-56
2022/10/10 00:45:46;;;;;;;0.20;0.20;;;;;;;18.14;100.00;99193.44;7393529;19;20046;-56
2022/10/10 00:48:20;;;;;;;0.40;0.40;;;;;;;18.07;100.00;99213.06;7394341;19;20078;-56
2022/10/10 00:51:17;;;;;;;0.75;0.50;;;;;;;18.01;100.00;99216.00;7391725;19;20018;-56
2022/10/10 00:54:09;;;;;;;3.45;0.60;;;;;;;18.05;100.00;99219.25;7391659;19;20070;-56
2022/10/10 00:56:46;;;;;;;0.45;0.40;;;;;;;17.94;100.00;99225.09;7390693;19;20021;-57
2022/10/10 00:59:15;;;;;;;0.40;0.40;;;;;;;17.99;100.00;99226.28;7390398;19;20021;-57
2022/10/10 01:01:43;;;;;;;0.10;0.10;;;;;;;17.99;100.00;99229.09;7390702;19;20062;-56
2022/10/10 01:04:38;;;;;;;0.22;0.22;;;;;;;17.75;100.00;99224.44;7385840;19;20471;-57
2022/10/10 01:07:10;;;;;;;0.85;0.50;;;;;;;17.80;100.00;99229.19;7395590;19;20018;-56
2022/10/10 01:09:39;;;;;;;0.10;0.10;;;;;;;17.79;100.00;99241.75;7391764;19;20073;-57
2022/10/10 01:12:16;;;;;;;0.10;0.00;;;;;;;17.85;100.00;99239.59;7391609;19;20055;-57
2022/10/10 01:15:05;;;;;;;0.25;0.25;;;;;;;17.89;100.00;99234.41;7392449;19;20011;-57
2022/10/10 01:17:58;;;;;;;0.10;0.10;;;;;;;17.63;100.00;99237.19;7394169;19;20105;-57
2022/10/10 01:20:57;;;;;;;0.20;0.20;;;;;;;17.65;100.00;99247.94;7391281;19;20013;-60
2022/10/10 01:23:56;;;;;;;0.10;0.10;;;;;;;17.15;100.00;99248.75;7388408;19;20002;-59
2022/10/10 01:26:48;;;;;;;4.68;0.20;;;;;;;17.07;100.00;99256.25;7388665;19;20022;-61
2022/10/10 01:29:26;;;;;;;0.10;0.10;;;;;;;16.84;100.00;99269.13;7390049;19;20167;-61
2022/10/10 01:31:59;;;;;;;0.98;0.73;;;;;;;17.06;100.00;99277.25;7391689;19;20014;-61
2022/10/10 01:34:39;;;;;;;0.20;0.20;;;;;;;17.17;100.00;99288.34;7390387;19;20633;-60
2022/10/10 01:37:17;;;;;;;0.30;0.20;;;;;;;17.05;100.00;99286.97;7393291;19;20014;-60
2022/10/10 01:39:56;;;;;;;0.57;0.32;;;;;;;16.93;100.00;99296.88;7389191;19;20006;-61
2022/10/10 01:42:54;;;;;;;0.20;0.20;;;;;;;16.77;100.00;99295.03;7389907;19;20026;-61
2022/10/10 01:45:24;;;;;;;0.10;0.10;;;;;;;16.68;100.00;99302.56;7389977;19;20086;-62
2022/10/10 01:47:54;;;;;;;0.95;0.38;;;;;;;17.02;100.00;99302.88;7394290;19;20463;-61
2022/10/10 01:50:25;;;;;;;0.50;0.43;;;;;;;16.97;100.00;99319.84;7392922;19;20494;-61
2022/10/10 01:53:02;;;;;;;0.10;0.10;;;;;;;17.02;100.00;99316.19;7391847;19;20014;-58
2022/10/10 01:55:56;;;;;;;0.22;0.22;;;;;;;16.76;100.00;99313.22;7389972;19;20033;-57
2022/10/10 01:58:42;;;;;;;0.17;0.17;;;;;;;17.03;100.00;99312.06;7394375;19;20014;-57
2022/10/10 02:01:17;;;;;;;0.45;0.43;;;;;;;16.95;100.00;99299.94;7392547;19;20070;-62
2022/10/10 02:03:55;;;;;;;0.73;0.73;;;;;;;17.03;100.00;99295.19;7387882;19;20515;-62
2022/10/10 02:07:14;;;;;;;0.10;0.10;;;;;;;17.00;100.00;99308.28;7391885;19;20021;-62
2022/10/10 02:10:01;;;;;;;9.40;0.85;;;;;;;15.50;100.00;99305.59;7389923;19;20391;-61
2022/10/10 02:12:30;;;;;;;0.10;0.10;;;;;;;16.43;100.00;99305.94;7387761;19;20026;-61
2022/10/10 02:15:06;;;;;;;0.20;0.20;;;;;;;15.79;100.00;99296.41;7388495;19;20463;-61
2022/10/10 02:17:37;;;;;;;0.10;0.10;;;;;;;16.23;100.00;99284.72;7393334;19;20017;-61
2022/10/10 02:20:06;;;;;;;0.77;0.20;;;;;;;15.33;100.00;99276.88;7390862;19;20433;-57
2022/10/10 02:22:36;;;;;;;1.00;0.28;;;;;;;15.30;100.00;99286.34;7389729;19;20466;-57
2022/10/10 02:25:03;;;;;;;0.75;0.57;;;;;;;15.68;100.00;99299.31;7390501;19;20010;-57
2022/10/10 02:27:52;;;;;;;1.10;0.10;;;;;;;15.88;100.00;99332.56;7390516;19;20019;-57
2022/10/10 02:30:19;;;;;;;0.10;0.10;;;;;;;15.89;100.00;99325.66;7390655;19;20014;-58
2022/10/10 02:32:57;;;;;;;1.48;0.63;;;;;;;15.95;100.00;99329.19;7388485;19;20006;-56
2022/10/10 02:35:31;;;;;;;0.40;0.40;;;;;;;16.29;100.00;99323.97;7389286;19;20023;-57
2022/10/10 02:38:03;;;;;;;0.43;0.43;;;;;;;16.29;100.00;99319.13;7390854;19;20058;-57
2022/10/10 02:40:31;;;;;;;0.10;0.10;;;;;;;16.07;100.00;99321.41;7391445;19;20015;-57
2022/10/10 02:43:02;;;;;;;2.25;0.35;;;;;;;16.40;100.00;99323.84;7385858;19;20039;-57
2022/10/10 02:45:32;;;;;;;3.50;0.40;;;;;;;16.57;100.00;99325.22;7386659;19;20035;-56
2022/10/10 02:48:03;;;;;;;4.80;0.77;;;;;;;16.33;100.00;99325.19;7390876;19;20030;-57
2022/10/10 02:50:30;;;;;;;0.45;0.45;;;;;;;16.39;100.00;99334.34;7389015;19;20020;-57
2022/10/10 02:52:58;;;;;;;0.35;0.35;;;;;;;16.17;100.00;99340.22;7385889;19;20015;-57
2022/10/10 02:55:26;;;;;;;0.10;0.10;;;;;;;15.78;100.00;99339.81;7386195;19;20104;-57
2022/10/10 02:57:53;;;;;;;0.40;0.32;;;;;;;16.15;100.00;99347.63;7390041;19;20352;-57
2022/10/10 03:00:20;;;;;;;0.20;0.20;;;;;;;16.24;100.00;99350.84;7396793;19;20011;-58
2022/10/10 03:02:47;;;;;;;0.40;0.40;;;;;;;16.36;100.00;99352.25;7393585;19;20445;-57
2022/10/10 03:05:16;;;;;;;0.60;0.25;;;;;;;16.49;100.00;99360.81;7395470;19;20018;-61
2022/10/10 03:07:43;;;;;;;0.50;0.47;;;;;;;16.37;100.00;99364.28;7396871;19;20014;-61
2022/10/10 03:10:12;;;;;;;0.90;0.20;;;;;;;15.99;100.00;99371.78;7395498;19;20070;-61
2022/10/10 03:12:52;;;;;;;0.13;0.13;;;;;;;16.02;100.00;99373.56;7394609;19;20111;-61
2022/10/10 03:15:19;;;;;;;0.93;0.85;;;;;;;15.98;100.00;99378.69;7394270;19;20338;-60
2022/10/10 03:18:01;;;;;;;1.02;0.85;;;;;;;16.00;100.00;99381.75;7396251;19;20010;-60
2022/10/10 03:20:30;;;;;;;0.82;0.35;;;;;;;15.90;100.00;99377.72;7396801;19;20404;-61
2022/10/10 03:22:57;;;;;;;2.83;0.25;;;;;;;15.96;100.00;99389.66;7394399;19;20070;-61
2022/10/10 03:25:24;;;;;;;1.17;0.82;;;;;;;16.15;100.00;99390.53;7396267;19;20027;-61
2022/10/10 03:27:51;;;;;;;0.30;0.20;;;;;;;16.12;100.00;99388.00;7396368;19;20044;-61
2022/10/10 03:30:31;;;;;;;0.52;0.50;;;;;;;16.19;100.00;99393.81;7394796;19;20486;-61
2022/10/10 03:33:08;;;;;;;0.20;0.10;;;;;;;16.35;100.00;99403.38;7393549;19;20363;-61
2022/10/10 03:35:36;;;;;;;0.90;0.75;;;;;;;16.52;100.00;99410.34;7395020;19;20010;-61
2022/10/10 03:38:05;;;;;;;0.28;0.28;;;;;;;16.55;100.00;99417.75;7396421;19;20340;-61
2022/10/10 03:40:37;;;;;;;5.35;0.35;;;;;;;16.41;100.00;99421.72;7393023;19;20010;-61
2022/10/10 03:43:04;;;;;;;3.85;0.73;;;;;;;16.34;100.00;99433.53;7391646;19;20152;-61
2022/10/10 03:45:31;;;;;;;1.10;0.40;;;;;;;16.23;100.00;99433.63;7393402;19;20022;-61
2022/10/10 03:47:58;;;;;;;0.73;0.40;;;;;;;16.24;100.00;99434.41;7396136;19;20015;-62
2022/10/10 03:50:25;;;;;;;0.75;0.63;;;;;;;16.15;100.00;99437.53;7395022;19;20011;-61
2022/10/10 03:52:54;;;;;;;0.50;0.50;;;;;;;15.84;100.00;99439.56;7395212;19;20040;-61
2022/10/10 03:55:26;;;;;;;5.57;1.50;;;;;;;15.78;100.00;99449.31;7392593;19;20019;-61
2022/10/10 03:57:57;;;;;;;0.38;0.35;;;;;;;15.75;100.00;99451.09;7393335;19;20010;-61
2022/10/10 04:00:24;;;;;;;0.55;0.38;;;;;;;15.56;100.00;99460.69;7395831;19;21341;-61
2022/10/10 04:02:52;;;;;;;0.38;0.32;;;;;;;15.49;100.00;99452.81;7394129;19;20371;-61
2022/10/10 04:05:23;;;;;;;0.30;0.20;;;;;;;15.41;100.00;99454.59;7392585;19;20011;-62
2022/10/10 04:07:50;;;;;;;1.25;0.77;;;;;;;15.34;100.00;99460.75;7395617;19;20385;-60
2022/10/10 04:10:18;;;;;;;0.30;0.30;;;;;;;15.19;100.00;99473.09;7393435;19;20387;-60
2022/10/10 04:12:45;;;;;;;0.20;0.20;;;;;;;15.04;100.00;99467.03;7393601;19;20011;-61
2022/10/10 04:15:12;;;;;;;0.20;0.20;;;;;;;14.93;100.00;99478.28;7391752;19;20373;-61
2022/10/10 04:17:41;;;;;;;0.30;0.17;;;;;;;14.92;100.00;99476.00;7394889;19;20032;-61
2022/10/10 04:20:08;;;;;;;0.22;0.22;;;;;;;14.73;100.00;99489.78;7393183;19;20114;-61
2022/10/10 04:22:36;;;;;;;0.52;0.52;;;;;;;14.72;100.00;99502.28;7391335;19;20018;-61
2022/10/10 04:25:04;;;;;;;2.35;0.95;;;;;;;14.55;100.00;99498.75;7393647;19;20021;-61
2022/10/10 04:27:31;;;;;;;4.18;0.40;;;;;;;14.52;100.00;99501.81;7393603;19;20360;-61
2022/10/10 04:29:58;;;;;;;0.85;0.30;;;;;;;14.54;100.00;99502.06;7393176;19;20028;-61
2022/10/10 04:32:28;;;;;;;0.17;0.17;;;;;;;14.17;100.00;99507.88;7390831;19;20081;-61
2022/10/10 04:34:56;;;;;;;0.32;0.32;;;;;;;14.02;100.00;99518.56;7391024;19;20393;-61
2022/10/10 04:37:23;;;;;;;0.20;0.20;;;;;;;13.92;100.00;99520.09;7394430;19;20014;-61
2022/10/10 04:39:50;;;;;;;0.20;0.13;;;;;;;13.98;100.00;99523.66;7392704;19;20342;-61
2022/10/10 04:42:17;;;;;;;1.10;0.68;;;;;;;13.85;100.00;99526.19;7391129;19;20471;-61
2022/10/10 04:44:45;;;;;;;0.40;0.40;;;;;;;13.83;100.00;99528.72;7391622;19;20017;-61
2022/10/10 04:47:19;;;;;;;0.73;0.30;;;;;;;13.71;100.00;99527.19;7391991;19;20015;-60
2022/10/10 04:49:46;;;;;;;0.22;0.22;;;;;;;13.84;100.00;99527.47;7392058;19;20014;-61
2022/10/10 04:52:13;;;;;;;0.30;0.22;;;;;;;13.66;100.00;99531.50;7388637;19;20015;-61
2022/10/10 04:54:40;;;;;;;0.10;0.10;;;;;;;13.68;100.00;99535.31;7388169;19;20019;-61
2022/10/10 04:57:10;;;;;;;1.60;0.75;;;;;;;13.60;100.00;99537.06;7391099;19;20015;-60
2022/10/10 04:59:37;;;;;;;0.30;0.30;;;;;;;13.62;100.00;99542.91;7389098;19;20017;-60
2022/10/10 05:02:05;;;;;;;0.10;0.10;;;;;;;13.54;100.00;99553.06;7388996;19;20829;-61
2022/10/10 05:04:32;;;;;;;0.15;0.15;;;;;;;13.44;100.00;99537.78;7389134;19;20066;-57
2022/10/10 05:07:00;;;;;;;2.65;0.32;;;;;;;13.31;100.00;99545.84;7393812;19;20029;-56
2022/10/10 05:09:28;;;;;;;0.20;0.20;;;;;;;13.26;100.00;99560.56;7391409;19;20443;-57
2022/10/10 05:11:56;;;;;;;0.30;0.30;;;;;;;13.16;100.00;99556.47;7391149;19;20049;-56
2022/10/10 05:14:24;;;;;;;0.20;0.20;;;;;;;13.11;100.00;99562.00;7389839;19;20088;-57
2022/10/10 05:16:51;;;;;;;0.17;0.17;;;;;;;13.00;100.00;99564.69;7391704;19;20010;-56
2022/10/10 05:19:18;;;;;;;0.20;0.20;;;;;;;12.99;100.00;99568.78;7391861;19;20022;-56
2022/10/10 05:21:46;;;;;;;0.20;0.20;;;;;;;12.98;100.00;99568.00;7389591;19;20034;-57
2022/10/10 05:24:12;;;;;;;0.60;0.60;;;;;;;13.13;100.00;99574.22;7389518;19;20350;-56
2022/10/10 05:26:39;;;;;;;0.17;0.17;;;;;;;13.11;100.00;99573.97;7391416;19;20014;-57
2022/10/10 05:29:07;;;;;;;0.25;0.25;;;;;;;13.03;100.00;99581.25;7390546;19;20053;-57
2022/10/10 05:31:34;;;;;;;0.20;0.15;;;;;;;13.00;100.00;99576.66;7389318;19;20021;-57
2022/10/10 05:34:01;;;;;;;0.30;0.30;;;;;;;12.96;100.00;99578.91;7389268;19;20074;-56
2022/10/10 05:36:28;;;;;;;2.40;1.00;;;;;;;13.01;100.00;99588.59;7391389;19;20027;-57
2022/10/10 05:38:56;;;;;;;0.10;0.10;;;;;;;12.92;100.00;99587.53;7390063;19;20010;-57
2022/10/10 05:41:24;;;;;;;0.25;0.25;;;;;;;12.94;100.00;99601.78;7393714;19;20490;-58
2022/10/10 05:43:50;;;;;;;6.13;0.88;;;;;;;12.86;100.00;99605.53;7386363;19;20014;-58
2022/10/10 05:46:19;;;;;;;0.20;0.20;;;;;;;12.72;100.00;99598.06;7388285;19;20019;-57
2022/10/10 05:48:46;;;;;;;0.40;0.40;;;;;;;12.81;100.00;99603.47;7389040;19;20015;-57
2022/10/10 05:51:14;;;;;;;0.22;0.17;;;;;;;12.87;100.00;99609.84;7392995;19;20471;-57
2022/10/10 05:53:42;;;;;;;0.35;0.35;;;;;;;12.88;100.00;99608.59;7387738;19;20010;-57
2022/10/10 05:56:10;;;;;;;2.72;0.30;;;;;;;12.92;100.00;99614.72;7386692;19;20017;-57
2022/10/10 05:58:37;;;;;;;1.85;0.47;;;;;;;13.00;100.00;99620.59;7391885;19;20069;-58
2022/10/10 06:01:06;;;;;;;0.65;0.65;;;;;;;12.98;100.00;99620.34;7390690;19;20081;-58
2022/10/10 06:03:35;;;;;;;1.25;0.95;;;;;;;12.85;100.00;99623.56;7387499;19;20024;-58
2022/10/10 06:06:02;;;;;;;2.42;1.33;;;;;;;12.41;100.00;99626.00;7389733;19;20386;-57
2022/10/10 06:08:31;;;;;;;0.20;0.20;;;;;;;12.28;100.00;99622.81;7391675;19;20953;-58
2022/10/10 06:11:07;;;;;;;0.50;0.50;;;;;;;12.66;100.00;99631.56;7391394;19;20336;-58
2022/10/10 06:13:34;;;;;;;0.30;0.30;;;;;;;12.78;100.00;99630.38;7388371;19;20018;-58
2022/10/10 06:16:01;;;;;;;0.25;0.25;;;;;;;12.81;100.00;99637.00;7388239;19;20102;-58
2022/10/10 06:18:29;;;;;;;5.10;1.45;;;;;;;12.72;100.00;99639.97;7391237;19;20508;-58
2022/10/10 06:21:01;;;;;;;3.00;0.70;;;;;;;12.75;100.00;99647.38;7391998;19;20333;-58
2022/10/10 06:23:28;;;;;;;4.22;1.05;;;;;;;12.68;100.00;99656.19;7387079;19;20362;-58
2022/10/10 06:25:55;;;;;;;3.97;1.05;;;;;;;12.69;100.00;99658.47;7391776;19;20455;-57
2022/10/10 06:28:23;;;;;;;5.60;1.25;;;;;;;12.61;100.00;99663.00;7394889;19;20010;-58
2022/10/10 06:30:50;;;;;;;9.48;2.20;;;;;;;12.58;100.00;99666.00;7391582;19;20006;-58
2022/10/10 06:33:18;;;;;;;2.15;1.63;;;;;;;12.46;100.00;99681.13;7392927;19;20347;-57
2022/10/10 06:35:47;;;;;;;1.02;1.02;;;;;;;12.37;100.00;99681.28;7398551;19;20010;-57
2022/10/10 06:38:15;;;;;;;1.50;0.98;;;;;;;12.27;100.00;99685.50;7399741;19;20358;-58
2022/10/10 06:40:44;;;;;;;2.88;0.95;;;;;;;12.33;100.00;99686.31;7398824;19;20094;-58
2022/10/10 06:43:12;;;;;;;5.25;0.63;;;;;;;12.42;100.00;99689.72;7396061;19;20007;-57
2022/10/10 06:45:44;;;;;;;1.80;0.88;;;;;;;12.46;100.00;99698.66;7396039;19;20018;-57
2022/10/10 06:48:12;;;;;;;2.83;0.65;;;;;;;12.38;100.00;99707.94;7399985;19;20018;-58
2022/10/10 06:50:38;;;;;;;0.52;0.47;;;;;;;12.32;100.00;99712.72;7399757;19;20010;-57
2022/10/10 06:53:05;;;;;;;4.25;0.95;;;;;;;12.40;100.00;99716.59;7400215;19;20018;-57
2022/10/10 06:55:32;;;;;;;1.60;1.50;;;;;;;12.48;100.00;99726.06;7396127;19;20015;-58
2022/10/10 06:57:58;;;;;;;0.20;0.20;;;;;;;12.58;100.00;99735.84;7397741;19;20021;-57
2022/10/10 07:00:24;;;;;;;1.98;1.88;;;;;;;12.59;100.00;99742.97;7398797;19;20010;-57
2022/10/10 07:02:51;;;;;;;0.30;0.30;;;;;;;12.61;100.00;99740.44;7394843;19;20006;-58
2022/10/10 07:05:17;;;;;;;0.30;0.30;;;;;;;12.71;100.00;99744.63;7398233;19;20022;-58
2022/10/10 07:07:44;;;;;;;0.28;0.28;;;;;;;11.58;100.00;99751.31;7398481;19;20034;-58
2022/10/10 07:10:13;;;;;;;0.32;0.32;;;;;;;11.33;100.00;99751.91;7397158;19;20029;-58
2022/10/10 07:12:40;;;;;;;1.02;1.02;;;;;;;12.34;100.00;99752.09;7399440;19;20021;-57
2022/10/10 07:15:06;;;;;;;0.55;0.55;;;;;;;12.58;100.00;99758.19;7399099;19;20033;-58
2022/10/10 07:17:33;;;;;;;0.28;0.28;;;;;;;12.06;100.00;99763.66;7398516;19;20010;-58
2022/10/10 07:19:59;;;;;;;0.20;0.20;;;;;;;11.47;100.00;99756.72;7398938;19;20498;-58
2022/10/10 07:22:25;;;;;;;0.30;0.30;;;;;;;11.32;100.00;99772.69;7397558;19;20478;-58
2022/10/10 07:24:51;;;;;;;0.20;0.20;;;;;;;10.86;100.00;99780.78;7399675;19;20006;-57
2022/10/10 07:27:17;;;;;;;0.60;0.60;;;;;;;11.37;100.00;99780.38;7396724;19;20010;-58
2022/10/10 07:29:44;;;;;;;0.55;0.55;;;;;;;11.52;100.00;99786.69;7395982;19;20018;-57
2022/10/10 07:32:10;;;;;;;8.23;1.25;;;;;;;12.02;100.00;99795.81;7394914;19;20041;-58
2022/10/10 07:34:36;;;;;;;0.28;0.28;;;;;;;12.30;100.00;99796.94;7393457;19;20019;-57
2022/10/10 07:37:02;;;;;;;0.20;0.20;;;;;;;12.43;100.00;99791.78;7398469;19;20014;-57
2022/10/10 07:39:28;;;;;;;0.52;0.52;;;;;;;12.58;100.00;99800.09;7394708;19;20347;-57
2022/10/10 07:41:54;;;;;;;0.13;0.13;;;;;;;12.74;100.00;99802.31;7395453;19;20018;-56
2022/10/10 07:44:23;;;;;;;0.95;0.38;;;;;;;13.24;100.00;99806.41;7391184;19;20015;-57
2022/10/10 07:46:49;;;;;;;9.10;0.80;;;;;;;13.45;100.00;99812.66;7394673;19;20002;-58
2022/10/10 07:49:15;;;;;;;0.82;0.82;;;;;;;13.69;100.00;99816.69;7397283;19;20463;-57
2022/10/10 07:51:41;;;;;;;0.22;0.22;;;;;;;13.80;100.00;99816.00;7395471;19;20077;-57
2022/10/10 07:54:09;;;;;;;1.95;0.50;;;;;;;13.77;100.00;99821.84;7392743;19;20015;-57
2022/10/10 07:56:35;;;;;;;0.43;0.43;;;;;;;13.74;100.00;99822.81;7394430;19;20010;-55
2022/10/10 07:59:01;;;;;;;0.52;0.52;;;;;;;14.06;100.00;99827.09;7392690;19;20361;-56
2022/10/10 08:01:28;;;;;;;0.17;0.17;;;;;;;14.36;100.00;99831.13;7397547;19;20015;-56
2022/10/10 08:03:56;;;;;;;0.43;0.43;;;;;;;14.03;100.00;99842.88;7391912;19;20027;-55
2022/10/10 08:06:22;;;;;;;11.50;0.70;;;;;;;14.32;100.00;99850.19;7396618;19;20021;-55
2022/10/10 08:08:49;;;;;;;0.68;0.52;;;;;;;14.32;100.00;99844.59;7392804;19;20007;-56
2022/10/10 08:11:17;;;;;;;0.17;0.13;;;;;;;14.25;100.00;99856.25;7396875;19;20344;-56
2022/10/10 08:13:43;;;;;;;0.10;0.10;;;;;;;14.33;100.00;99851.75;7393123;19;20034;-56
2022/10/10 08:16:09;;;;;;;0.20;0.20;;;;;;;14.36;100.00;99850.72;7393040;19;20041;-56
2022/10/10 08:18:35;;;;;;;0.77;0.77;;;;;;;14.41;100.00;99852.78;7398138;19;20010;-56
2022/10/10 08:21:04;;;;;;;5.85;0.82;;;;;;;14.45;100.00;99864.53;7396648;19;20023;-56
2022/10/10 08:23:31;;;;;;;0.35;0.35;;;;;;;14.08;100.00;99874.97;7391972;19;20033;-56
2022/10/10 08:26:01;;;;;;;1.48;0.63;;;;;;;14.63;100.00;99877.34;7397045;19;20006;-56
2022/10/10 08:28:28;;;;;;;0.32;0.17;;;;;;;14.84;100.00;99876.69;7396676;19;20094;-56
2022/10/10 08:30:54;;;;;;;0.68;0.68;;;;;;;14.95;100.00;99879.53;7395937;19;20104;-56
2022/10/10 08:33:24;;;;;;;0.10;0.10;;;;;;;14.66;100.00;99879.16;7391816;19;20010;-56
2022/10/10 08:35:50;;;;;;;0.35;0.25;;;;;;;14.75;100.00;99892.97;7394116;19;20010;-56
2022/10/10 08:38:16;;;;;;;1.15;0.15;;;;;;;15.17;100.00;99896.44;7396956;19;20458;-56
2022/10/10 08:40:49;;;;;;;0.20;0.20;;;;;;;15.74;100.00;99898.06;7394597;19;20017;-56
2022/10/10 08:43:22;;;;;;;2.40;0.50;;;;;;;15.87;100.00;99901.13;7390109;19;20106;-56
2022/10/10 08:45:51;;;;;;;2.88;0.43;;;;;;;15.99;100.00;99904.69;7392471;19;20010;-56
2022/10/10 08:48:23;;;;;;;2.92;1.38;;;;;;;16.39;100.00;99904.91;7396048;19;20018;-56
2022/10/10 08:50:56;;;;;;;6.40;0.32;;;;;;;16.31;100.00;99905.94;7392666;19;20106;-56
2022/10/10 08:53:37;;;;;;;0.10;0.10;;;;;;;16.39;100.00;99918.19;7392600;19;20022;-56
2022/10/10 08:56:06;;;;;;;1.95;0.40;;;;;;;16.35;100.00;99926.88;7389110;19;20344;-56
2022/10/10 08:58:36;;;;;;;0.80;0.20;;;;;;;16.08;100.00;99927.69;7396810;19;20011;-56
2022/10/10 09:01:09;;;;;;;1.00;0.93;;;;;;;16.48;100.00;99938.34;7395141;19;20010;-56
2022/10/10 09:03:50;;;;;;;1.23;0.20;;;;;;;16.65;100.00;99950.34;7395076;19;20070;-56
2022/10/10 09:06:54;;;;;;;0.10;0.10;;;;;;;16.58;100.00;99947.31;7394532;19;20015;-56
2022/10/10 09:09:27;;;;;;;9.63;0.43;;;;;;;16.60;100.00;99945.53;7390876;19;20015;-56
2022/10/10 09:11:53;;;;;;;0.90;0.32;;;;;;;16.98;100.00;99946.69;7394858;19;20011;-61
2022/10/10 09:14:32;;;;;;;3.47;0.45;;;;;;;16.95;100.00;99955.41;7395904;19;20010;-56
2022/10/10 09:17:14;;;;;;;0.20;0.20;;;;;;;17.03;100.00;99948.72;7397206;19;20037;-60
2022/10/10 09:19:52;;;;;;;0.13;0.13;;;;;;;17.13;100.00;99954.81;7397659;19;20015;-56
2022/10/10 09:22:24;;;;;;;0.40;0.10;;;;;;;17.20;100.00;99957.84;7395396;19;20475;-56
2022/10/10 09:24:58;;;;;;;9.75;0.88;;;;;;;17.32;100.00;99964.19;7393517;19;20019;-56
2022/10/10 09:27:31;;;;;;;0.68;0.28;;;;;;;16.96;100.00;99971.75;7393513;19;20014;-56
2022/10/10 09:30:04;;;;;;;0.10;0.10;;;;;;;17.30;100.00;99980.84;7392781;19;20014;-56
2022/10/10 09:32:38;;;;;;;4.57;0.50;;;;;;;17.18;100.00;99987.78;7390848;19;20010;-56
2022/10/10 09:35:16;;;;;;;0.10;0.10;;;;;;;17.02;100.00;99991.44;7386082;19;20003;-56
2022/10/10 09:37:44;;;;;;;0.35;0.35;;;;;;;17.37;100.00;99983.84;7390085;19;20010;-56
2022/10/10 09:40:28;;;;;;;1.75;0.50;;;;;;;17.35;100.00;99985.66;7388520;19;20014;-56
2022/10/10 09:42:55;;;;;;;0.22;0.22;;;;;;;17.44;100.00;99985.38;7389922;19;20022;-56
2022/10/10 09:45:35;;;;;;;0.28;0.28;;;;;;;17.69;100.00;99992.69;7385072;19;20017;-56
2022/10/10 09:48:02;;;;;;;0.60;0.57;;;;;;;18.52;100.00;99988.47;7392769;19;20364;-56
2022/10/10 09:50:29;;;;;;;0.38;0.30;;;;;;;18.97;100.00;100000.84;7389976;19;20022;-56
2022/10/10 09:52:57;;;;;;;0.40;0.38;;;;;;;18.74;100.00;100002.38;7390927;19;20018;-56
2022/10/10 09:55:27;;;;;;;3.08;0.90;;;;;;;19.02;100.00;100002.06;7396159;19;20006;-56
2022/10/10 09:57:57;;;;;;;0.20;0.20;;;;;;;18.97;100.00;100012.16;7393659;19;20021;-56
2022/10/10 10:00:27;;;;;;;3.30;0.55;;;;;;;18.72;100.00;100014.19;7388765;19;20042;-56
2022/10/10 10:03:21;;;;;;;0.97;0.73;;;;;;;18.90;100.00;100016.31;7388457;19;20014;-56
2022/10/10 10:05:59;;;;;;;0.43;0.43;;;;;;;18.89;100.00;100023.25;7391472;19;20727;-56
2022/10/10 10:08:30;;;;;;;0.17;0.17;;;;;;;18.79;100.00;100022.06;7393952;19;20025;-56
2022/10/10 10:10:57;;;;;;;0.75;0.43;;;;;;;18.76;100.00;100017.47;7390587;19;20065;-56
2022/10/10 10:13:28;;;;;;;0.63;0.63;;;;;;;18.43;100.00;100033.94;7389937;19;20010;-56
2022/10/10 10:16:01;;;;;;;2.17;0.30;;;;;;;18.58;100.00;100032.25;7390398;19;20017;-56
2022/10/10 10:18:28;;;;;;;0.10;0.10;;;;;;;18.39;100.00;100045.47;7394484;19;20026;-56
2022/10/10 10:21:07;;;;;;;0.10;0.10;;;;;;;18.34;100.00;100049.13;7387449;19;20007;-56
2022/10/10 10:23:47;;;;;;;4.40;0.55;;;;;;;18.43;100.00;100067.78;7388838;19;20017;-56
2022/10/10 10:26:42;;;;;;;1.58;0.85;;;;;;;18.15;100.00;100063.09;7389256;19;20020;-56
2022/10/10 10:29:27;;;;;;;2.03;0.20;;;;;;;18.31;100.00;100069.13;7388994;19;20010;-56
2022/10/10 10:31:56;;;;;;;0.52;0.52;;;;;;;18.44;100.00;100066.47;7389619;19;20027;-57
2022/10/10 10:34:52;;;;;;;6.32;0.98;;;;;;;18.53;100.00;100069.75;7388848;19;20413;-56
2022/10/10 10:37:42;;;;;;;0.65;0.50;;;;;;;19.04;100.00;100079.28;7392425;19;20056;-56
2022/10/10 10:40:11;;;;;;;0.33;0.23;;;;;;;19.21;100.00;100079.88;7391660;19;20022;-56
2022/10/10 10:42:43;;;;;;;6.28;0.63;;;;;;;18.90;100.00;100098.16;7388227;19;20018;-56
2022/10/10 10:45:26;;;;;;;6.38;0.63;;;;;;;18.85;100.00;100101.03;7387412;19;20010;-56
2022/10/10 10:47:58;;;;;;;5.72;0.73;;;;;;;18.69;100.00;100104.78;7391722;19;20021;-56
2022/10/10 10:50:33;;;;;;;4.53;0.47;;;;;;;18.52;100.00;100106.94;7387307;19;20423;-56
2022/10/10 10:53:52;;;;;;;0.57;0.17;;;;;;;18.18;100.00;100112.78;7388596;19;20011;-56
2022/10/10 10:56:24;;;;;;;5.60;0.45;;;;;;;18.21;100.00;100122.25;7383478;19;20086;-56
2022/10/10 10:58:50;;;;;;;0.47;0.40;;;;;;;18.08;100.00;100130.53;7384971;19;20031;-56
2022/10/10 11:01:19;;;;;;;2.55;0.38;;;;;;;18.27;100.00;100128.63;7386903;19;20479;-56
2022/10/10 11:04:00;;;;;;;6.72;1.95;;;;;;;18.46;100.00;100131.59;7386816;19;20344;-56
2022/10/10 11:06:43;;;;;;;0.47;0.25;;;;;;;18.69;100.00;100133.72;7390638;19;20649;-56
2022/10/10 11:09:14;;;;;;;2.05;0.75;;;;;;;18.89;100.00;100136.13;7385328;19;20002;-56
2022/10/10 11:12:02;;;;;;;0.25;0.25;;;;;;;19.53;100.00;100126.00;7388825;19;20500;-56
2022/10/10 11:14:55;;;;;;;5.18;0.65;;;;;;;19.91;100.00;100131.72;7387091;19;20015;-56
2022/10/10 11:17:24;;;;;;;2.20;0.30;;;;;;;20.08;100.00;100132.25;7388546;19;20047;-55
2022/10/10 11:20:02;;;;;;;1.00;0.30;;;;;;;19.87;100.00;100148.22;7394779;19;20109;-56
2022/10/10 11:22:35;;;;;;;4.57;0.65;;;;;;;19.71;100.00;100143.56;7394990;19;20084;-56
2022/10/10 11:25:07;;;;;;;6.63;0.73;;;;;;;19.58;100.00;100149.84;7396264;19;20101;-57
2022/10/10 11:27:59;;;;;;;3.45;0.57;;;;;;;19.34;100.00;100153.44;7396324;19;20018;-56
2022/10/10 11:30:32;;;;;;;0.43;0.00;;;;;;;19.54;100.00;100155.81;7395186;19;20010;-55
2022/10/10 11:33:18;;;;;;;2.28;0.45;;;;;;;19.87;100.00;100165.19;7395910;19;20007;-55
2022/10/10 11:36:00;;;;;;;5.22;0.85;;;;;;;19.75;100.00;100163.81;7397383;19;20010;-62
2022/10/10 11:38:36;;;;;;;7.97;0.20;;;;;;;19.67;100.00;100170.03;7398753;19;20011;-62
2022/10/10 11:41:07;;;;;;;0.10;0.00;;;;;;;18.16;100.00;100185.84;7394926;19;20002;-62
2022/10/10 11:43:49;;;;;;;1.17;0.15;;;;;;;19.17;100.00;100200.81;7394474;19;20709;-62
2022/10/10 11:46:49;;;;;;;2.05;0.65;;;;;;;19.07;100.00;100196.81;7395539;19;20011;-62